Time;durP1;ratioP1;P1;durP2;ratioP2;P2;SDS_P1;SDS_P2;PMS_P1;PMS_P2;Temp;Humidity;BMP_temperature;BMP_pressure;BME280_temperature;BME280_humidity;BME280_pressure;Samples;Min_cycle;Max_cycle;Signal;HPM_P1;HPM_P2
2021/11/26 00:00:00;;;;;;;7.03;4.00;;;3.50;99.90;;;;;;5066035;28;20044;-43
2021/11/26 00:02:27;;;;;;;5.78;3.92;;;3.50;99.90;;;;;;5066831;28;20024;-42
2021/11/26 00:04:53;;;;;;;10.80;4.43;;;3.50;99.90;;;;;;5066210;28;20021;-43
2021/11/26 00:07:20;;;;;;;10.25;4.22;;;3.50;99.90;;;;;;5066485;28;20029;-44
2021/11/26 00:09:50;;;;;;;7.15;4.43;;;3.50;99.90;;;;;;5066262;28;20036;-44
2021/11/26 00:12:16;;;;;;;7.43;4.53;;;3.60;99.90;;;;;;5066764;28;20024;-43
2021/11/26 00:17:26;;;;;;;11.98;5.05;;;3.60;99.90;;;;;;5046348;28;20064;-43
2021/11/26 00:19:54;;;;;;;9.45;4.93;;;3.60;99.90;;;;;;5062421;28;20032;-43
2021/11/26 00:22:20;;;;;;;7.40;3.97;;;3.60;99.90;;;;;;5066774;28;20024;-43
2021/11/26 00:24:46;;;;;;;7.18;4.28;;;3.70;99.90;;;;;;5066379;28;20075;-43
2021/11/26 00:27:12;;;;;;;5.68;3.70;;;3.60;99.90;;;;;;5065881;28;20070;-44
2021/11/26 00:29:37;;;;;;;9.15;3.90;;;3.60;99.90;;;;;;5066424;28;20376;-42
2021/11/26 00:32:03;;;;;;;7.57;4.22;;;3.70;99.90;;;;;;5066477;28;20115;-42
2021/11/26 00:34:30;;;;;;;5.65;3.63;;;3.70;99.90;;;;;;5065657;28;20082;-42
2021/11/26 00:36:55;;;;;;;4.75;3.67;;;3.70;99.90;;;;;;5066966;28;20074;-43
2021/11/26 00:39:21;;;;;;;9.65;4.18;;;3.80;99.90;;;;;;5066510;28;20037;-43
2021/11/26 00:41:46;;;;;;;8.32;3.83;;;3.80;99.90;;;;;;5066373;28;20028;-44
2021/11/26 00:44:12;;;;;;;8.32;4.32;;;3.80;99.90;;;;;;5066650;28;20025;-43
2021/11/26 00:46:37;;;;;;;9.75;4.10;;;3.80;99.90;;;;;;5069685;28;20115;-45
2021/11/26 00:49:04;;;;;;;13.63;4.65;;;3.90;99.90;;;;;;5070079;28;20020;-43
2021/11/26 00:51:31;;;;;;;6.97;3.60;;;3.90;99.90;;;;;;5070093;28;20116;-44
2021/11/26 00:53:57;;;;;;;10.60;4.53;;;4.00;99.90;;;;;;5069960;28;20032;-44
2021/11/26 00:56:23;;;;;;;5.25;3.47;;;4.00;99.90;;;;;;5069793;28;20033;-43
2021/11/26 00:58:48;;;;;;;6.47;3.95;;;4.10;99.90;;;;;;5069897;28;20541;-43
2021/11/26 01:01:14;;;;;;;7.95;4.18;;;4.10;99.90;;;;;;5070187;28;20076;-43
2021/11/26 01:03:39;;;;;;;10.32;3.70;;;4.20;99.90;;;;;;5069191;28;20039;-42
2021/11/26 01:06:05;;;;;;;10.15;4.05;;;4.30;99.90;;;;;;5069764;28;20038;-44
2021/11/26 01:08:30;;;;;;;7.30;3.80;;;4.30;99.90;;;;;;5070241;28;20036;-42
2021/11/26 01:10:56;;;;;;;7.03;3.70;;;4.30;99.90;;;;;;5068675;28;20033;-43
2021/11/26 01:13:21;;;;;;;7.38;3.58;;;4.30;99.90;;;;;;5069886;28;20461;-43
2021/11/26 01:15:47;;;;;;;5.57;3.40;;;4.30;99.90;;;;;;5069491;28;20326;-43
2021/11/26 01:18:14;;;;;;;5.65;3.08;;;4.30;99.90;;;;;;5069098;28;20045;-43
2021/11/26 01:20:41;;;;;;;5.28;2.70;;;4.30;99.90;;;;;;5069423;28;20119;-42
2021/11/26 01:23:08;;;;;;;7.47;3.55;;;4.30;99.90;;;;;;5058653;28;20078;-43
2021/11/26 01:25:35;;;;;;;4.45;2.45;;;4.30;99.90;;;;;;5068879;28;20044;-44
2021/11/26 01:28:02;;;;;;;7.60;2.78;;;4.30;99.90;;;;;;5069299;28;20021;-43
2021/11/26 01:30:32;;;;;;;7.10;2.65;;;4.30;99.90;;;;;;5068904;28;20025;-43
2021/11/26 01:33:02;;;;;;;6.90;2.97;;;4.40;99.90;;;;;;5069466;28;20024;-43
2021/11/26 01:35:31;;;;;;;8.43;2.80;;;4.40;99.90;;;;;;5069572;28;20028;-43
2021/11/26 01:37:57;;;;;;;4.13;2.17;;;4.50;99.90;;;;;;5068707;28;20101;-43
2021/11/26 01:40:23;;;;;;;6.07;2.33;;;4.60;99.90;;;;;;5069543;28;20037;-43
2021/11/26 01:42:51;;;;;;;4.47;2.47;;;4.60;99.90;;;;;;5069164;28;20418;-43
2021/11/26 01:45:17;;;;;;;5.25;2.80;;;4.60;99.90;;;;;;5069338;28;20081;-44
2021/11/26 01:47:42;;;;;;;3.00;2.20;;;4.60;99.90;;;;;;5068614;28;20180;-42
2021/11/26 01:50:12;;;;;;;6.57;2.33;;;4.60;99.90;;;;;;5069110;28;20809;-43
2021/11/26 01:52:41;;;;;;;4.28;2.72;;;4.60;99.90;;;;;;5067831;28;20033;-43
2021/11/26 01:55:10;;;;;;;5.90;2.28;;;4.60;99.90;;;;;;5068969;28;20033;-43
2021/11/26 01:57:35;;;;;;;4.18;2.45;;;4.60;99.90;;;;;;5068469;28;20012;-43
2021/11/26 02:00:04;;;;;;;6.10;2.35;;;4.60;99.90;;;;;;5068386;28;20036;-43
2021/11/26 02:02:30;;;;;;;3.35;1.90;;;4.60;99.90;;;;;;5068629;28;20016;-44
2021/11/26 02:04:58;;;;;;;4.22;2.30;;;4.70;99.90;;;;;;5068655;28;20039;-43
2021/11/26 02:07:24;;;;;;;4.85;2.30;;;4.70;99.90;;;;;;5068436;28;20020;-42
2021/11/26 02:09:49;;;;;;;4.38;1.92;;;4.60;99.90;;;;;;5068472;28;20025;-43
2021/11/26 02:12:15;;;;;;;3.20;1.30;;;4.70;99.90;;;;;;5068638;28;20035;-43
2021/11/26 02:14:41;;;;;;;2.95;1.30;;;4.70;99.90;;;;;;5068662;28;20098;-43
2021/11/26 02:17:06;;;;;;;2.50;1.20;;;4.70;99.90;;;;;;5068080;28;20033;-43
2021/11/26 02:19:32;;;;;;;1.52;1.35;;;4.70;99.90;;;;;;5068034;28;20036;-43
2021/11/26 02:21:57;;;;;;;2.67;1.20;;;4.80;99.90;;;;;;5068768;28;20130;-43
2021/11/26 02:24:23;;;;;;;3.25;1.15;;;4.80;99.90;;;;;;5067520;28;20491;-43
2021/11/26 02:26:51;;;;;;;3.75;0.95;;;4.80;99.90;;;;;;5068066;28;20025;-43
2021/11/26 02:29:19;;;;;;;3.45;1.58;;;4.90;99.90;;;;;;5069037;28;20031;-43
2021/11/26 02:31:45;;;;;;;3.72;1.70;;;5.00;99.90;;;;;;5048310;28;20024;-43
2021/11/26 02:34:12;;;;;;;3.78;1.45;;;5.10;99.90;;;;;;5062336;28;20028;-44
2021/11/26 02:36:38;;;;;;;3.63;1.60;;;5.10;99.90;;;;;;5067994;28;20123;-43
2021/11/26 02:39:08;;;;;;;3.22;1.50;;;5.10;99.90;;;;;;5068231;28;20024;-44
2021/11/26 02:41:35;;;;;;;2.75;1.50;;;5.20;99.90;;;;;;5067894;28;20128;-44
2021/11/26 02:44:01;;;;;;;3.33;1.80;;;5.20;99.90;;;;;;5068102;28;20020;-42
2021/11/26 02:46:27;;;;;;;6.72;2.20;;;5.20;99.90;;;;;;5068245;28;20036;-44
2021/11/26 02:48:52;;;;;;;4.65;1.70;;;5.20;99.90;;;;;;5066988;28;20062;-44
2021/11/26 02:51:18;;;;;;;2.75;1.67;;;5.20;99.90;;;;;;5068363;28;20646;-43
2021/11/26 02:53:53;;;;;;;6.28;1.80;;;5.20;99.90;;;;;;5067576;28;20048;-44
2021/11/26 02:56:18;;;;;;;4.15;2.03;;;5.20;99.90;;;;;;5057410;28;20032;-42
2021/11/26 02:58:44;;;;;;;6.03;1.98;;;5.20;99.90;;;;;;5067723;28;20036;-43
2021/11/26 03:01:09;;;;;;;3.08;2.13;;;5.20;99.90;;;;;;5067278;28;20483;-43
2021/11/26 03:03:35;;;;;;;2.70;2.45;;;5.20;99.90;;;;;;5067250;28;20027;-43
2021/11/26 03:06:03;;;;;;;4.55;2.40;;;5.20;99.90;;;;;;5067341;28;20755;-42
2021/11/26 03:08:30;;;;;;;2.90;2.40;;;5.20;99.90;;;;;;5067198;28;20029;-43
2021/11/26 03:11:00;;;;;;;3.47;2.70;;;5.20;99.90;;;;;;5066958;28;20028;-43
2021/11/26 03:13:26;;;;;;;5.22;3.08;;;5.20;99.90;;;;;;5067623;28;20078;-42
2021/11/26 03:15:52;;;;;;;6.72;3.15;;;5.20;99.90;;;;;;5066486;28;20668;-43
2021/11/26 03:18:19;;;;;;;5.25;3.45;;;5.20;99.90;;;;;;5067478;28;20526;-43
2021/11/26 03:20:46;;;;;;;4.03;2.78;;;5.20;99.90;;;;;;5066757;28;20093;-42
2021/11/26 03:23:12;;;;;;;4.82;3.17;;;5.20;99.90;;;;;;5067036;28;20032;-42
2021/11/26 03:25:40;;;;;;;6.45;3.63;;;5.10;99.90;;;;;;5067022;28;20500;-42
2021/11/26 03:28:07;;;;;;;4.38;3.20;;;5.10;99.90;;;;;;5067106;28;20032;-44
2021/11/26 03:30:32;;;;;;;6.22;3.33;;;5.10;99.90;;;;;;5066590;28;20027;-42
2021/11/26 03:32:58;;;;;;;5.80;3.35;;;5.10;99.90;;;;;;5067359;28;20353;-43
2021/11/26 03:35:24;;;;;;;4.57;3.22;;;5.10;99.90;;;;;;5067014;28;20028;-44
2021/11/26 03:37:53;;;;;;;4.35;3.33;;;5.10;99.90;;;;;;5066522;28;20025;-44
2021/11/26 03:40:21;;;;;;;6.10;3.30;;;5.00;99.90;;;;;;5067671;28;20040;-41
2021/11/26 03:42:48;;;;;;;4.93;3.40;;;5.10;99.90;;;;;;5055977;28;20024;-43
2021/11/26 03:45:15;;;;;;;3.38;3.08;;;5.10;99.90;;;;;;5066739;28;20078;-42
2021/11/26 03:47:41;;;;;;;4.30;2.92;;;5.00;99.90;;;;;;5067087;28;20434;-43
2021/11/26 03:50:07;;;;;;;3.83;3.28;;;5.10;99.90;;;;;;5066465;28;20111;-43
2021/11/26 03:52:33;;;;;;;3.85;3.22;;;5.10;99.90;;;;;;5066354;28;20017;-43
2021/11/26 03:54:58;;;;;;;4.43;3.15;;;5.10;99.90;;;;;;5067074;28;20031;-44
2021/11/26 03:57:24;;;;;;;4.05;2.90;;;5.10;99.90;;;;;;5066492;28;20464;-44
2021/11/26 03:59:49;;;;;;;4.43;3.38;;;5.10;99.90;;;;;;5066762;28;20476;-43
2021/11/26 04:02:15;;;;;;;3.30;3.00;;;5.10;99.90;;;;;;5066399;28;20095;-42
2021/11/26 04:04:41;;;;;;;4.43;3.40;;;5.20;99.90;;;;;;5067161;28;20056;-42
2021/11/26 04:07:06;;;;;;;4.07;3.05;;;5.10;99.90;;;;;;5066177;28;20016;-44
2021/11/26 04:09:32;;;;;;;5.05;3.45;;;5.20;99.90;;;;;;5066906;28;20036;-42
2021/11/26 04:11:58;;;;;;;4.22;3.38;;;5.20;99.90;;;;;;5066708;28;20134;-43
2021/11/26 04:14:24;;;;;;;4.53;3.17;;;5.20;99.90;;;;;;5066803;28;20126;-43
2021/11/26 04:16:49;;;;;;;4.80;3.15;;;5.20;99.90;;;;;;5066425;28;20013;-44
2021/11/26 04:19:15;;;;;;;5.60;3.25;;;5.20;99.90;;;;;;5069065;28;20033;-43
2021/11/26 04:21:41;;;;;;;3.92;3.30;;;5.20;99.90;;;;;;5071043;28;20064;-42
2021/11/26 04:24:06;;;;;;;3.45;2.50;;;5.20;99.90;;;;;;5070870;28;20443;-43
2021/11/26 04:26:32;;;;;;;2.85;2.30;;;5.20;99.90;;;;;;5070443;28;20028;-43
2021/11/26 04:28:59;;;;;;;4.35;2.30;;;5.20;99.90;;;;;;5070992;28;20025;-43
2021/11/26 04:31:25;;;;;;;5.13;2.00;;;5.30;99.90;;;;;;5070340;28;20043;-43
2021/11/26 04:33:53;;;;;;;2.15;1.60;;;5.20;99.90;;;;;;5070121;28;20020;-43
2021/11/26 04:36:19;;;;;;;2.40;1.70;;;5.30;99.90;;;;;;5070647;28;20032;-43
2021/11/26 04:38:44;;;;;;;3.67;1.90;;;5.30;99.90;;;;;;5070150;28;20623;-42
2021/11/26 04:41:10;;;;;;;3.75;1.73;;;5.30;99.90;;;;;;5070362;28;20041;-43
2021/11/26 04:43:35;;;;;;;1.98;1.50;;;5.40;99.90;;;;;;5069888;28;20043;-43
2021/11/26 04:46:01;;;;;;;1.58;1.40;;;5.40;99.90;;;;;;5070579;28;20134;-43
2021/11/26 04:48:26;;;;;;;3.60;1.55;;;5.40;99.90;;;;;;5069571;28;20040;-43
2021/11/26 04:50:52;;;;;;;4.55;1.40;;;5.40;99.90;;;;;;5070163;28;20380;-43
2021/11/26 04:53:18;;;;;;;2.97;1.10;;;5.40;99.90;;;;;;5070267;28;20037;-43
2021/11/26 04:55:44;;;;;;;3.05;1.08;;;5.40;99.90;;;;;;5070017;28;20025;-42
2021/11/26 04:58:09;;;;;;;2.28;1.20;;;5.40;99.90;;;;;;5069798;28;20031;-43
2021/11/26 05:00:36;;;;;;;2.00;1.20;;;5.40;99.90;;;;;;5069758;28;20036;-44
2021/11/26 05:03:01;;;;;;;3.70;1.63;;;5.40;99.90;;;;;;5069725;28;20062;-44
2021/11/26 05:05:27;;;;;;;2.42;1.17;;;5.40;99.90;;;;;;5069790;28;20109;-42
2021/11/26 05:07:53;;;;;;;2.33;1.13;;;5.40;99.90;;;;;;5070066;28;20086;-44
2021/11/26 05:10:20;;;;;;;2.53;0.95;;;5.30;99.90;;;;;;5069638;28;20322;-44
2021/11/26 05:12:53;;;;;;;2.72;1.00;;;5.30;99.90;;;;;;5069709;28;20043;-43
2021/11/26 05:15:24;;;;;;;1.98;0.90;;;5.30;99.90;;;;;;5068674;28;20024;-44
2021/11/26 05:17:55;;;;;;;2.45;1.05;;;5.20;99.90;;;;;;5069225;28;20068;-42
2021/11/26 05:20:21;;;;;;;2.58;1.13;;;5.20;99.90;;;;;;5069653;28;20911;-43
2021/11/26 05:22:47;;;;;;;4.90;1.02;;;5.20;99.90;;;;;;5069636;28;20332;-44
2021/11/26 05:25:14;;;;;;;3.47;1.15;;;5.20;99.90;;;;;;5069559;28;20044;-43
2021/11/26 05:27:39;;;;;;;4.15;1.00;;;5.10;99.90;;;;;;5069155;28;20103;-43
2021/11/26 05:30:09;;;;;;;1.20;0.90;;;5.10;99.90;;;;;;5068431;28;20115;-42
2021/11/26 05:32:35;;;;;;;1.10;1.00;;;5.10;99.90;;;;;;5069983;28;20081;-43
2021/11/26 05:35:00;;;;;;;1.95;1.00;;;5.10;99.90;;;;;;5069194;28;20028;-43
2021/11/26 05:37:26;;;;;;;2.13;0.95;;;5.00;99.90;;;;;;5068960;28;20802;-43
2021/11/26 05:39:51;;;;;;;1.80;1.00;;;5.00;99.90;;;;;;5069336;28;20023;-43
2021/11/26 05:42:20;;;;;;;3.13;1.35;;;5.00;99.90;;;;;;5069254;28;20665;-43
2021/11/26 05:44:46;;;;;;;3.20;1.40;;;5.00;99.90;;;;;;5068728;28;20024;-44
2021/11/26 05:47:14;;;;;;;2.72;0.90;;;5.00;99.90;;;;;;5069259;28;20059;-43
2021/11/26 05:49:43;;;;;;;2.38;0.85;;;5.00;99.90;;;;;;5069555;28;20013;-43
2021/11/26 05:52:11;;;;;;;1.77;0.80;;;4.90;99.90;;;;;;5068501;28;20225;-43
2021/11/26 05:54:37;;;;;;;2.60;1.08;;;4.90;99.90;;;;;;5069197;28;20020;-44
2021/11/26 05:57:03;;;;;;;2.28;1.27;;;4.90;99.90;;;;;;5069186;28;20587;-42
2021/11/26 05:59:29;;;;;;;1.88;1.10;;;4.90;99.90;;;;;;5068100;28;20025;-44
2021/11/26 06:01:56;;;;;;;5.63;1.30;;;4.90;99.90;;;;;;5068705;28;20031;-44
2021/11/26 06:04:22;;;;;;;1.88;1.23;;;4.90;99.90;;;;;;5069273;28;20025;-43
2021/11/26 06:06:47;;;;;;;3.67;1.30;;;4.90;99.90;;;;;;5068193;28;20043;-43
2021/11/26 06:09:13;;;;;;;3.63;1.60;;;4.90;99.90;;;;;;5068743;28;20021;-43
2021/11/26 06:11:38;;;;;;;2.08;1.17;;;4.90;99.90;;;;;;5068203;28;20063;-43
2021/11/26 06:14:03;;;;;;;2.92;1.65;;;4.90;99.90;;;;;;5068716;28;20034;-43
2021/11/26 06:16:29;;;;;;;4.00;1.60;;;4.90;99.90;;;;;;5068037;28;20051;-43
2021/11/26 06:18:55;;;;;;;2.53;1.23;;;4.90;99.90;;;;;;5068371;28;20555;-43
2021/11/26 06:21:20;;;;;;;1.60;1.13;;;4.90;99.90;;;;;;5068986;28;20032;-44
2021/11/26 06:23:47;;;;;;;1.52;1.20;;;4.90;99.90;;;;;;5068254;28;20028;-42
2021/11/26 06:26:13;;;;;;;3.28;1.25;;;4.90;99.90;;;;;;5068051;28;20031;-43
2021/11/26 06:28:38;;;;;;;4.20;1.95;;;4.90;99.90;;;;;;5068276;28;20028;-43
2021/11/26 06:31:06;;;;;;;4.43;2.30;;;4.90;99.90;;;;;;5068423;28;20024;-44
2021/11/26 06:33:32;;;;;;;4.53;1.90;;;4.90;99.90;;;;;;5068065;28;20067;-43
2021/11/26 06:35:57;;;;;;;5.97;2.20;;;4.90;99.90;;;;;;5068089;28;20407;-43
2021/11/26 06:38:23;;;;;;;6.50;2.90;;;4.90;99.90;;;;;;5068077;28;20818;-43
2021/11/26 06:40:49;;;;;;;6.35;2.90;;;4.90;99.90;;;;;;5067623;28;20032;-43
2021/11/26 06:43:14;;;;;;;5.50;2.60;;;4.90;99.90;;;;;;5066674;28;20016;-43
2021/11/26 06:45:40;;;;;;;6.38;2.70;;;5.00;99.90;;;;;;5068444;28;20059;-43
2021/11/26 06:48:05;;;;;;;5.88;2.45;;;5.00;99.90;;;;;;5064106;28;20032;-43
2021/11/26 06:50:31;;;;;;;5.30;2.38;;;5.00;99.90;;;;;;5064253;28;20067;-43
2021/11/26 06:52:57;;;;;;;5.00;2.88;;;5.00;99.90;;;;;;5066096;28;20460;-42
2021/11/26 06:55:23;;;;;;;5.45;2.75;;;5.00;99.90;;;;;;5062707;28;20021;-43
2021/11/26 06:57:48;;;;;;;5.53;2.30;;;5.00;99.90;;;;;;5066756;28;20067;-43
2021/11/26 07:00:17;;;;;;;5.85;2.67;;;5.00;99.90;;;;;;5066469;28;20036;-43
2021/11/26 07:02:42;;;;;;;6.10;2.65;;;5.00;99.90;;;;;;5066180;28;20020;-44
2021/11/26 07:05:09;;;;;;;3.63;2.38;;;5.00;99.90;;;;;;5066431;28;20536;-42
2021/11/26 07:07:39;;;;;;;8.90;2.63;;;5.00;99.90;;;;;;5066989;28;20426;-44
2021/11/26 07:10:06;;;;;;;5.43;3.00;;;4.90;99.90;;;;;;5066442;28;20407;-43
2021/11/26 07:12:32;;;;;;;4.15;2.65;;;5.00;99.90;;;;;;5067237;28;20121;-43
2021/11/26 07:14:58;;;;;;;7.60;2.65;;;4.90;99.90;;;;;;5063469;28;20528;-43
2021/11/26 07:17:23;;;;;;;6.32;2.50;;;5.00;99.90;;;;;;5050569;28;20028;-42
2021/11/26 07:19:49;;;;;;;3.78;2.20;;;4.90;99.90;;;;;;5068420;28;20440;-43
2021/11/26 07:22:17;;;;;;;9.65;2.60;;;5.00;99.90;;;;;;5067113;28;20078;-43
2021/11/26 07:24:44;;;;;;;6.25;2.70;;;4.90;99.90;;;;;;5067374;28;20012;-42
2021/11/26 07:27:10;;;;;;;4.45;2.50;;;5.00;99.90;;;;;;5067267;28;20028;-43
2021/11/26 07:29:35;;;;;;;7.72;2.72;;;4.90;99.90;;;;;;5066549;28;20021;-42
2021/11/26 07:32:01;;;;;;;6.05;2.85;;;4.90;99.90;;;;;;5067874;28;20032;-44
2021/11/26 07:34:27;;;;;;;7.78;2.92;;;4.90;99.90;;;;;;5066716;28;20462;-43
2021/11/26 07:36:54;;;;;;;7.22;3.20;;;5.00;99.90;;;;;;5066845;28;20039;-42
2021/11/26 07:39:21;;;;;;;5.63;3.72;;;4.90;99.90;;;;;;5067614;28;20021;-43
2021/11/26 07:41:46;;;;;;;8.32;3.38;;;4.90;99.90;;;;;;5066747;28;20387;-43
2021/11/26 07:44:12;;;;;;;9.40;3.30;;;4.90;99.90;;;;;;5066053;28;20096;-43
2021/11/26 07:46:37;;;;;;;10.35;3.97;;;4.90;99.90;;;;;;5066711;28;20468;-43
2021/11/26 07:49:03;;;;;;;8.65;4.00;;;4.90;99.90;;;;;;5067829;28;20470;-43
2021/11/26 07:51:31;;;;;;;6.10;3.92;;;4.90;99.90;;;;;;5067006;28;20062;-43
2021/11/26 07:53:57;;;;;;;9.88;4.55;;;4.90;99.90;;;;;;5065405;28;20133;-43
2021/11/26 07:56:23;;;;;;;8.20;4.97;;;4.80;99.90;;;;;;5067072;28;20452;-43
2021/11/26 07:58:48;;;;;;;9.63;4.95;;;4.80;99.90;;;;;;5066456;28;20020;-44
2021/11/26 08:01:14;;;;;;;8.85;4.90;;;4.70;99.90;;;;;;5067162;28;20579;-43
2021/11/26 08:03:40;;;;;;;12.05;5.35;;;4.70;99.90;;;;;;5066550;28;20376;-43
2021/11/26 08:06:05;;;;;;;10.45;5.15;;;4.70;99.90;;;;;;5065928;28;20020;-43
2021/11/26 08:08:31;;;;;;;11.60;5.78;;;4.70;99.90;;;;;;5066982;28;20020;-43
2021/11/26 08:10:57;;;;;;;11.95;5.35;;;4.70;99.90;;;;;;5066763;28;20025;-42
2021/11/26 08:13:22;;;;;;;13.02;5.55;;;4.70;99.90;;;;;;5066341;28;20712;-43
2021/11/26 08:15:48;;;;;;;14.13;5.68;;;4.70;99.90;;;;;;5066809;28;20056;-44
2021/11/26 08:18:14;;;;;;;10.35;5.55;;;4.80;99.90;;;;;;5066401;28;20182;-44
2021/11/26 08:20:39;;;;;;;15.18;6.05;;;4.80;99.90;;;;;;5066262;28;20059;-42
2021/11/26 08:23:06;;;;;;;13.35;5.53;;;4.90;99.90;;;;;;5066966;28;20039;-44
2021/11/26 08:25:33;;;;;;;10.23;6.30;;;4.90;99.90;;;;;;5065981;28;20082;-43
2021/11/26 08:27:58;;;;;;;14.68;6.55;;;5.00;99.90;;;;;;5066761;28;20031;-43
2021/11/26 08:30:24;;;;;;;19.00;6.18;;;5.00;99.90;;;;;;5066391;28;20029;-44
2021/11/26 08:32:52;;;;;;;14.20;5.32;;;5.10;99.90;;;;;;5066104;28;20104;-43
2021/11/26 08:35:18;;;;;;;14.68;5.70;;;5.10;99.90;;;;;;5066337;28;20135;-42
2021/11/26 08:37:44;;;;;;;14.13;5.47;;;5.10;99.90;;;;;;5066654;28;20411;-43
2021/11/26 08:40:10;;;;;;;15.40;5.45;;;5.20;99.90;;;;;;5065802;28;20020;-43
2021/11/26 08:42:35;;;;;;;13.15;6.30;;;5.30;99.90;;;;;;5066103;28;20025;-44
2021/11/26 08:45:02;;;;;;;18.98;5.90;;;5.20;99.90;;;;;;5066464;28;20512;-43
2021/11/26 08:47:28;;;;;;;13.40;6.22;;;5.20;99.90;;;;;;5065926;28;20098;-44
2021/11/26 08:49:53;;;;;;;16.23;5.93;;;5.30;99.90;;;;;;5066214;28;20738;-44
2021/11/26 08:52:19;;;;;;;16.80;6.18;;;5.30;99.90;;;;;;5066590;28;20032;-44
2021/11/26 08:54:45;;;;;;;12.60;5.75;;;5.30;99.90;;;;;;5065828;28;20031;-42
2021/11/26 08:57:12;;;;;;;18.08;5.93;;;5.30;99.90;;;;;;5066179;28;20028;-44
2021/11/26 08:59:38;;;;;;;16.13;5.35;;;5.30;99.90;;;;;;5066260;28;20028;-43
2021/11/26 09:02:04;;;;;;;17.23;5.90;;;5.40;99.90;;;;;;5065875;28;20143;-43
2021/11/26 09:04:29;;;;;;;17.55;5.57;;;5.40;99.90;;;;;;5065868;28;20033;-43
2021/11/26 09:06:55;;;;;;;16.40;5.93;;;5.40;99.90;;;;;;5069116;28;20520;-42
2021/11/26 09:09:21;;;;;;;13.63;4.75;;;5.50;99.90;;;;;;5069643;28;20043;-43
2021/11/26 09:11:47;;;;;;;16.52;6.45;;;5.50;99.90;;;;;;5068390;28;20035;-42
2021/11/26 09:14:13;;;;;;;14.70;5.20;;;5.50;99.90;;;;;;5069692;28;20024;-45
2021/11/26 09:16:38;;;;;;;20.98;7.10;;;5.50;99.90;;;;;;5069550;28;20031;-43
2021/11/26 09:19:04;;;;;;;19.50;6.55;;;5.50;99.90;;;;;;5068913;28;20072;-44
2021/11/26 09:21:30;;;;;;;27.02;6.47;;;5.50;99.90;;;;;;5069650;28;20044;-44
2021/11/26 09:23:56;;;;;;;15.07;6.43;;;5.50;99.90;;;;;;5069413;28;20062;-43
2021/11/26 09:26:22;;;;;;;21.73;6.80;;;5.50;99.90;;;;;;5069230;28;20028;-43
2021/11/26 09:28:48;;;;;;;20.13;6.18;;;5.50;99.90;;;;;;5069339;28;20025;-43
2021/11/26 09:31:13;;;;;;;14.18;6.10;;;5.60;99.90;;;;;;5069999;28;20672;-43
2021/11/26 09:33:39;;;;;;;20.05;6.93;;;5.60;99.90;;;;;;5069344;28;20028;-43
2021/11/26 09:36:09;;;;;;;13.57;5.07;;;5.50;99.90;;;;;;5068813;28;20054;-44
2021/11/26 09:38:41;;;;;;;16.17;6.30;;;5.50;99.90;;;;;;5069210;28;20376;-42
2021/11/26 09:41:10;;;;;;;17.02;6.25;;;5.50;99.90;;;;;;5049643;28;20558;-45
2021/11/26 09:43:35;;;;;;;18.48;6.47;;;5.40;99.90;;;;;;5063142;28;20161;-43
2021/11/26 09:46:04;;;;;;;17.83;6.10;;;5.50;99.90;;;;;;5068690;28;20111;-43
2021/11/26 09:48:32;;;;;;;16.10;6.20;;;5.40;99.90;;;;;;5069507;28;20028;-43
2021/11/26 09:50:57;;;;;;;16.48;6.25;;;5.40;99.90;;;;;;5068697;28;20048;-43
2021/11/26 09:53:26;;;;;;;12.65;5.60;;;5.40;99.90;;;;;;5069301;28;20651;-43
2021/11/26 09:56:06;;;;;;;12.02;5.30;;;5.50;99.90;;;;;;5069520;28;20484;-43
2021/11/26 09:58:33;;;;;;;13.77;5.60;;;5.50;99.90;;;;;;5070199;28;20532;-43
2021/11/26 10:01:04;;;;;;;19.23;5.57;;;5.60;99.90;;;;;;5068874;28;20036;-44
2021/11/26 10:03:47;;;;;;;13.77;4.75;;;5.60;99.90;;;;;;5068970;28;20020;-43
2021/11/26 10:06:27;;;;;;;14.23;5.78;;;5.70;99.90;;;;;;5068866;28;20103;-43
2021/11/26 10:09:03;;;;;;;13.48;5.15;;;5.70;99.90;;;;;;5068313;28;20055;-43
2021/11/26 10:11:32;;;;;;;14.07;5.63;;;5.80;99.90;;;;;;5068315;28;20119;-43
2021/11/26 10:14:10;;;;;;;12.07;4.70;;;5.80;99.90;;;;;;5068875;28;20082;-43
2021/11/26 10:16:43;;;;;;;8.63;4.40;;;5.90;99.90;;;;;;5068853;28;20047;-43
2021/11/26 10:19:08;;;;;;;11.45;4.65;;;5.90;99.90;;;;;;5067742;28;20105;-43
2021/11/26 10:21:34;;;;;;;11.15;4.07;;;5.90;99.90;;;;;;5067729;28;20032;-43
2021/11/26 10:23:59;;;;;;;12.82;4.70;;;6.00;99.90;;;;;;5068715;28;20021;-42
2021/11/26 10:26:31;;;;;;;10.55;5.05;;;6.00;99.90;;;;;;5067601;28;20028;-43
2021/11/26 10:29:03;;;;;;;12.77;4.50;;;6.00;99.90;;;;;;5069022;28;20024;-42
2021/11/26 10:31:36;;;;;;;9.68;3.90;;;6.10;99.90;;;;;;5057404;28;20267;-43
2021/11/26 10:34:07;;;;;;;11.20;4.47;;;6.20;99.90;;;;;;5067621;28;20032;-43
2021/11/26 10:36:48;;;;;;;17.30;5.47;;;6.30;99.90;;;;;;5067560;28;20086;-44
2021/11/26 10:39:22;;;;;;;9.30;4.28;;;6.30;99.90;;;;;;5067996;28;20023;-43
2021/11/26 10:41:52;;;;;;;10.38;4.10;;;6.40;99.90;;;;;;5068334;28;20082;-42
2021/11/26 10:44:22;;;;;;;7.68;3.80;;;6.40;99.90;;;;;;5067843;28;20479;-44
2021/11/26 10:47:01;;;;;;;9.07;4.32;;;6.50;99.90;;;;;;5067443;28;20170;-42
2021/11/26 10:58:17;;;;;;;9.70;4.30;;;6.50;99.90;;;;;;5046546;28;20036;-43
2021/11/26 11:00:43;;;;;;;9.82;4.50;;;6.50;99.90;;;;;;5066882;28;20033;-43
2021/11/26 11:03:08;;;;;;;9.38;3.70;;;6.50;99.90;;;;;;5067861;28;20106;-43
2021/11/26 11:05:38;;;;;;;7.55;3.97;;;6.50;99.90;;;;;;5067565;28;20020;-42
2021/11/26 11:08:20;;;;;;;11.25;4.35;;;6.50;99.90;;;;;;5067228;28;20045;-43
2021/11/26 11:10:45;;;;;;;8.45;3.85;;;6.50;99.90;;;;;;5066047;28;20552;-43
2021/11/26 11:13:16;;;;;;;10.38;3.90;;;6.50;99.90;;;;;;5067512;28;20028;-43
2021/11/26 11:15:44;;;;;;;10.30;3.95;;;6.50;99.90;;;;;;5066791;28;20320;-43
2021/11/26 11:18:12;;;;;;;7.65;3.45;;;6.50;99.90;;;;;;5068801;28;20135;-43
2021/11/26 11:20:39;;;;;;;7.93;3.67;;;6.50;99.90;;;;;;5067823;28;20571;-43
2021/11/26 11:23:05;;;;;;;8.68;3.78;;;6.60;99.90;;;;;;5066484;28;20399;-43
2021/11/26 11:25:34;;;;;;;5.35;3.13;;;6.60;99.90;;;;;;5068340;28;20020;-42
2021/11/26 11:28:06;;;;;;;11.00;5.20;;;6.60;99.90;;;;;;5066946;28;20078;-43
2021/11/26 11:30:32;;;;;;;11.00;4.28;;;6.60;99.90;;;;;;5067472;28;20032;-44
2021/11/26 11:32:58;;;;;;;11.30;3.33;;;6.60;99.90;;;;;;5067221;28;20024;-42
2021/11/26 11:35:26;;;;;;;11.25;4.18;;;6.60;99.90;;;;;;5066855;28;20058;-43
2021/11/26 11:37:53;;;;;;;12.02;4.28;;;6.70;99.90;;;;;;5067113;28;20043;-44
2021/11/26 11:40:31;;;;;;;9.60;3.80;;;6.70;99.90;;;;;;5067186;28;20036;-43
2021/11/26 11:43:10;;;;;;;6.88;2.90;;;6.70;99.90;;;;;;5066324;28;20139;-43
2021/11/26 11:45:38;;;;;;;9.18;3.65;;;6.80;99.90;;;;;;5067449;28;20032;-44
2021/11/26 11:48:05;;;;;;;10.43;4.32;;;6.80;99.90;;;;;;5066541;28;20110;-43
2021/11/26 11:50:39;;;;;;;11.93;3.75;;;6.80;99.90;;;;;;5066404;28;20410;-43
2021/11/26 11:53:04;;;;;;;8.43;3.67;;;6.80;99.90;;;;;;5066618;28;20418;-43
2021/11/26 11:55:32;;;;;;;10.02;4.00;;;6.90;99.90;;;;;;5067389;28;20459;-42
2021/11/26 11:58:16;;;;;;;12.85;3.50;;;6.90;99.90;;;;;;5065163;28;20519;-41
2021/11/26 12:00:45;;;;;;;9.63;4.30;;;7.00;99.90;;;;;;5066414;28;20043;-43
2021/11/26 12:03:27;;;;;;;13.23;4.20;;;7.00;99.90;;;;;;5066886;28;20479;-43
2021/11/26 12:06:04;;;;;;;7.05;3.47;;;7.10;99.90;;;;;;5067570;28;20059;-43
2021/11/26 12:08:30;;;;;;;10.63;4.03;;;7.10;99.90;;;;;;5067231;28;20158;-42
2021/11/26 12:10:58;;;;;;;10.27;3.90;;;7.10;99.90;;;;;;5066605;28;20037;-43
2021/11/26 12:13:28;;;;;;;7.68;3.30;;;7.10;99.90;;;;;;5066657;28;20031;-43
2021/11/26 12:16:10;;;;;;;7.55;3.78;;;7.00;99.90;;;;;;5067382;28;20024;-44
2021/11/26 12:18:48;;;;;;;8.32;3.53;;;6.90;99.90;;;;;;5065973;28;20068;-43
2021/11/26 12:21:17;;;;;;;10.68;4.03;;;6.80;99.90;;;;;;5066917;28;20040;-42
2021/11/26 12:24:05;;;;;;;9.30;3.75;;;6.70;99.90;;;;;;5066477;28;20472;-43
2021/11/26 12:26:52;;;;;;;10.43;4.07;;;6.60;99.90;;;;;;5066731;28;20025;-44
2021/11/26 12:29:21;;;;;;;7.88;3.72;;;6.50;99.90;;;;;;5066726;28;20036;-43
2021/11/26 12:31:47;;;;;;;10.90;4.20;;;6.40;99.90;;;;;;5066376;28;20098;-42
2021/11/26 12:34:16;;;;;;;12.52;3.72;;;6.30;99.90;;;;;;5066250;28;20029;-42
2021/11/26 12:36:48;;;;;;;8.68;4.13;;;6.20;99.90;;;;;;5066804;28;20501;-42
2021/11/26 12:39:26;;;;;;;9.10;4.13;;;6.10;99.90;;;;;;5065899;28;20028;-42
2021/11/26 12:41:57;;;;;;;10.05;4.82;;;6.00;99.90;;;;;;5069366;28;20028;-43
2021/11/26 12:44:32;;;;;;;8.98;4.10;;;6.00;99.90;;;;;;5070592;28;20020;-43
2021/11/26 12:47:02;;;;;;;7.25;3.72;;;5.90;99.90;;;;;;5069436;28;20138;-43
2021/11/26 12:51:03;;;;;;;11.07;4.55;;;5.80;99.90;;;;;;5068923;28;20103;-43
2021/11/26 12:52:21;;;;;;;8.65;5.22;;;5.80;99.90;;;;;;5070423;28;20100;-43
2021/11/26 12:54:50;;;;;;;8.68;4.68;;;5.80;99.90;;;;;;5069736;28;20587;-43
2021/11/26 12:57:20;;;;;;;6.35;3.88;;;5.80;99.90;;;;;;5070415;28;20046;-42
2021/11/26 12:59:57;;;;;;;11.10;4.25;;;5.70;99.90;;;;;;5068695;28;20039;-43
2021/11/26 13:02:25;;;;;;;7.38;4.00;;;5.70;99.90;;;;;;5069940;28;20051;-45
2021/11/26 13:04:59;;;;;;;9.77;4.90;;;5.70;99.90;;;;;;5069559;28;20656;-43